createdAt,value
2018-10-19T00:01:22.005Z,99.90
2018-10-19T00:03:50.572Z,99.90
2018-10-19T00:06:19.019Z,99.90
2018-10-19T00:08:47.411Z,99.90
2018-10-19T00:11:38.425Z,99.90
2018-10-19T00:14:08.528Z,99.90
2018-10-19T00:16:37.408Z,99.90
2018-10-19T00:19:06.040Z,99.90
2018-10-19T00:21:34.531Z,99.90
2018-10-19T00:24:03.030Z,99.90
2018-10-19T00:26:31.451Z,99.90
2018-10-19T00:28:59.885Z,99.90
2018-10-19T00:31:28.407Z,99.90
2018-10-19T00:33:56.816Z,99.90
2018-10-19T00:36:25.293Z,99.90
2018-10-19T00:38:53.789Z,99.90
2018-10-19T00:41:22.218Z,99.90
2018-10-19T00:43:50.671Z,99.90
2018-10-19T00:46:19.107Z,99.90
2018-10-19T00:48:47.553Z,99.90
2018-10-19T00:51:16.074Z,99.90
2018-10-19T00:53:44.488Z,99.90
2018-10-19T00:56:14.985Z,99.90
2018-10-19T00:58:43.459Z,99.90
2018-10-19T01:01:11.924Z,99.90
2018-10-19T01:03:40.386Z,99.90
2018-10-19T01:06:08.827Z,99.90
2018-10-19T01:08:37.411Z,99.90
2018-10-19T01:11:06.088Z,99.90
2018-10-19T01:13:34.501Z,99.90
2018-10-19T01:16:02.959Z,99.90
2018-10-19T01:18:31.462Z,99.90
2018-10-19T01:20:59.991Z,99.90
2018-10-19T01:23:28.496Z,99.90
2018-10-19T01:25:57.034Z,99.90
2018-10-19T01:28:25.477Z,99.90
2018-10-19T01:30:54.074Z,99.90
2018-10-19T01:33:22.564Z,99.90
2018-10-19T01:35:51.051Z,99.90
2018-10-19T01:38:19.609Z,99.90
2018-10-19T01:40:48.225Z,99.90
2018-10-19T01:43:16.680Z,99.90
2018-10-19T01:45:50.396Z,99.90
2018-10-19T01:48:19.068Z,99.90
2018-10-19T01:50:47.514Z,99.90
2018-10-19T01:53:16.154Z,99.90
2018-10-19T01:55:44.495Z,99.90
2018-10-19T01:58:12.975Z,99.90
2018-10-19T02:00:41.463Z,99.90
2018-10-19T02:03:10.082Z,99.90
2018-10-19T02:05:39.083Z,99.90
2018-10-19T02:08:08.459Z,99.90
2018-10-19T02:10:36.979Z,99.90
2018-10-19T02:13:05.847Z,99.90
2018-10-19T02:15:35.079Z,99.90
2018-10-19T02:18:03.531Z,99.90
2018-10-19T02:20:32.008Z,99.90
2018-10-19T02:23:00.583Z,99.90
2018-10-19T02:25:28.982Z,99.90
2018-10-19T02:27:57.582Z,99.90
2018-10-19T02:30:26.352Z,99.90
2018-10-19T02:32:54.940Z,99.90
2018-10-19T02:35:23.298Z,99.90
2018-10-19T02:37:51.812Z,99.90
2018-10-19T02:40:20.277Z,99.90
2018-10-19T02:42:48.787Z,99.90
2018-10-19T02:45:17.349Z,99.90
2018-10-19T02:47:45.736Z,99.90
2018-10-19T02:50:14.223Z,99.90
2018-10-19T02:52:42.706Z,99.90
2018-10-19T02:55:11.206Z,99.90
2018-10-19T02:57:39.740Z,99.90
2018-10-19T03:00:10.098Z,99.90
2018-10-19T03:02:38.550Z,99.90
2018-10-19T03:05:07.439Z,99.90
2018-10-19T03:07:35.903Z,99.90
2018-10-19T03:10:04.898Z,99.90
2018-10-19T03:12:33.318Z,99.90
2018-10-19T03:15:01.788Z,99.90
2018-10-19T03:17:30.260Z,99.90
2018-10-19T03:19:58.801Z,99.90
2018-10-19T03:22:27.270Z,99.90
2018-10-19T03:24:55.742Z,99.90
2018-10-19T03:27:24.232Z,99.90
2018-10-19T03:29:52.727Z,99.90
2018-10-19T03:32:21.155Z,99.90
2018-10-19T03:34:54.161Z,99.90
2018-10-19T03:37:22.535Z,99.90
2018-10-19T03:39:51.032Z,99.90
2018-10-19T03:42:19.836Z,99.90
2018-10-19T03:44:48.304Z,99.90
2018-10-19T03:47:16.858Z,99.90
2018-10-19T03:49:46.283Z,99.90
2018-10-19T03:52:14.727Z,99.90
2018-10-19T03:54:43.205Z,99.90
2018-10-19T03:57:11.718Z,99.90
2018-10-19T03:59:40.072Z,99.90
2018-10-19T04:02:08.349Z,99.90
2018-10-19T04:04:36.704Z,99.90
2018-10-19T04:07:05.106Z,99.90
2018-10-19T04:09:33.350Z,99.90
2018-10-19T04:12:01.606Z,99.90
2018-10-19T04:14:29.837Z,99.90
2018-10-19T04:16:58.112Z,99.90
2018-10-19T04:19:26.721Z,99.90
2018-10-19T04:21:55.281Z,99.90
2018-10-19T04:24:23.791Z,99.90
2018-10-19T04:26:52.167Z,99.90
2018-10-19T04:29:20.402Z,99.90
2018-10-19T04:31:48.815Z,99.90
2018-10-19T04:34:17.507Z,99.90
2018-10-19T04:36:45.752Z,99.90
2018-10-19T04:39:14.081Z,99.90
2018-10-19T04:41:42.382Z,99.90
2018-10-19T04:44:10.573Z,99.90
2018-10-19T04:46:38.850Z,99.90
2018-10-19T04:49:07.197Z,99.90
2018-10-19T04:51:35.591Z,99.90
2018-10-19T04:54:03.877Z,99.90
2018-10-19T04:56:34.500Z,99.90
2018-10-19T04:59:02.743Z,99.90
2018-10-19T05:01:31.011Z,99.90
2018-10-19T05:03:59.316Z,99.90
2018-10-19T05:06:27.712Z,99.90
2018-10-19T05:08:55.805Z,99.90
2018-10-19T05:11:24.229Z,99.90
2018-10-19T05:13:52.489Z,99.90
2018-10-19T05:16:20.698Z,99.90
2018-10-19T05:18:49.031Z,99.90
2018-10-19T05:21:17.585Z,99.90
2018-10-19T05:23:45.834Z,99.90
2018-10-19T05:26:14.154Z,99.90
2018-10-19T05:28:42.297Z,99.90
2018-10-19T05:31:10.539Z,99.90
2018-10-19T05:33:39.024Z,99.90
2018-10-19T05:36:07.401Z,99.90
2018-10-19T05:38:36.103Z,99.90
2018-10-19T05:41:04.560Z,99.90
2018-10-19T05:43:32.873Z,99.90
2018-10-19T05:46:01.048Z,99.90
2018-10-19T05:48:29.261Z,99.90
2018-10-19T05:50:57.468Z,99.90
2018-10-19T05:53:25.669Z,99.90
2018-10-19T05:55:53.954Z,99.90
2018-10-19T05:58:22.653Z,99.90
2018-10-19T06:00:51.122Z,99.90
2018-10-19T06:03:19.361Z,99.90
2018-10-19T06:05:47.569Z,99.90
2018-10-19T06:08:15.813Z,99.90
2018-10-19T06:10:44.365Z,99.90
2018-10-19T06:13:12.775Z,99.90
2018-10-19T06:15:41.168Z,99.90
2018-10-19T06:18:09.376Z,99.90
2018-10-19T06:20:37.638Z,99.90
2018-10-19T06:23:06.375Z,99.90
2018-10-19T06:25:34.514Z,99.90
2018-10-19T06:28:02.883Z,99.90
2018-10-19T06:30:31.373Z,99.90
2018-10-19T06:32:59.945Z,99.90
2018-10-19T06:35:28.500Z,99.90
2018-10-19T06:37:56.844Z,99.90
2018-10-19T06:40:25.017Z,99.90
2018-10-19T06:42:53.253Z,99.90
2018-10-19T06:45:21.434Z,99.90
2018-10-19T06:47:49.632Z,99.90
2018-10-19T06:50:17.895Z,99.90
2018-10-19T06:52:46.305Z,99.90
2018-10-19T06:55:17.514Z,99.90
2018-10-19T06:57:46.261Z,99.90
2018-10-19T07:00:16.166Z,99.90
2018-10-19T07:02:44.692Z,99.90
2018-10-19T07:05:13.182Z,99.90
2018-10-19T07:07:41.701Z,99.90
2018-10-19T07:10:11.031Z,99.90
2018-10-19T07:12:40.054Z,99.90
2018-10-19T07:15:08.927Z,99.90
2018-10-19T07:17:37.452Z,99.90
2018-10-19T07:20:06.457Z,99.90
2018-10-19T07:22:34.636Z,99.90
2018-10-19T07:25:02.957Z,99.90
2018-10-19T07:27:32.346Z,99.90
2018-10-19T07:30:00.622Z,99.90
2018-10-19T07:35:09.055Z,99.90
2018-10-19T07:37:37.237Z,99.90
2018-10-19T07:40:05.918Z,99.90
2018-10-19T07:42:34.284Z,99.90
2018-10-19T07:45:02.721Z,99.90
2018-10-19T07:47:31.072Z,99.90
2018-10-19T07:49:59.295Z,99.90
2018-10-19T07:52:27.563Z,99.90
2018-10-19T07:54:55.867Z,99.90
2018-10-19T07:57:24.296Z,99.90
2018-10-19T07:59:52.622Z,99.90
2018-10-19T08:02:20.906Z,99.90
2018-10-19T08:04:49.195Z,99.90
2018-10-19T08:07:17.618Z,99.90
2018-10-19T08:09:45.876Z,99.90
2018-10-19T08:12:14.230Z,99.90
2018-10-19T08:14:42.511Z,99.90
2018-10-19T08:17:10.845Z,99.90
2018-10-19T08:19:39.222Z,99.90
2018-10-19T08:22:07.653Z,99.90
2018-10-19T08:24:36.002Z,99.90
2018-10-19T08:27:04.869Z,99.90
2018-10-19T08:29:33.174Z,99.90
2018-10-19T08:32:01.495Z,99.90
2018-10-19T08:34:29.731Z,99.90
2018-10-19T08:39:51.040Z,99.90
2018-10-19T08:42:19.338Z,99.90
2018-10-19T08:44:48.923Z,99.90
2018-10-19T08:47:17.483Z,99.90
2018-10-19T08:49:45.766Z,99.90
2018-10-19T08:52:14.110Z,99.90
2018-10-19T08:54:42.465Z,99.90
2018-10-19T08:57:10.699Z,99.90
2018-10-19T08:59:38.902Z,99.90
2018-10-19T09:02:07.217Z,99.90
2018-10-19T09:04:35.469Z,99.90
2018-10-19T09:07:03.733Z,99.90
2018-10-19T09:09:32.076Z,99.90
2018-10-19T09:12:00.948Z,99.90
2018-10-19T09:14:53.130Z,99.90
2018-10-19T09:17:21.468Z,99.90
2018-10-19T09:19:50.932Z,99.90
2018-10-19T09:22:19.751Z,99.90
2018-10-19T09:24:48.065Z,99.90
2018-10-19T09:27:16.526Z,99.90
2018-10-19T09:29:44.998Z,99.90
2018-10-19T09:32:13.325Z,99.90
2018-10-19T09:34:41.690Z,99.90
2018-10-19T09:37:11.059Z,99.90
2018-10-19T09:39:39.405Z,99.90
2018-10-19T09:42:08.183Z,99.90
2018-10-19T09:44:36.439Z,99.90
2018-10-19T09:47:05.253Z,99.90
2018-10-19T09:49:33.630Z,99.90
2018-10-19T09:52:02.890Z,99.90
2018-10-19T09:54:31.189Z,99.90
2018-10-19T09:56:59.645Z,99.90
2018-10-19T09:59:27.965Z,99.90
2018-10-19T10:01:56.451Z,99.90
2018-10-19T10:04:24.709Z,99.90
2018-10-19T10:06:53.114Z,99.90
2018-10-19T10:09:21.433Z,99.90
2018-10-19T10:11:49.698Z,99.90
2018-10-19T10:14:18.086Z,99.90
2018-10-19T10:16:46.446Z,99.90
2018-10-19T10:19:14.837Z,99.90
2018-10-19T10:21:43.166Z,99.90
2018-10-19T10:24:11.417Z,99.90
2018-10-19T10:26:39.770Z,99.90
2018-10-19T10:29:08.101Z,99.90
2018-10-19T10:31:36.916Z,99.90
2018-10-19T10:34:05.768Z,99.90
2018-10-19T10:36:33.967Z,99.90
2018-10-19T10:39:02.350Z,99.90
2018-10-19T10:41:30.586Z,99.90
2018-10-19T10:43:58.861Z,99.90
2018-10-19T10:46:27.182Z,99.90
2018-10-19T10:48:55.614Z,99.90
2018-10-19T10:51:23.947Z,99.90
2018-10-19T10:53:52.358Z,99.90
2018-10-19T10:56:20.889Z,99.90
2018-10-19T10:58:49.139Z,99.90
2018-10-19T11:01:17.446Z,99.90
2018-10-19T11:03:45.893Z,99.90
2018-10-19T11:06:14.191Z,99.90
2018-10-19T11:08:42.449Z,99.90
2018-10-19T11:11:12.255Z,99.90
2018-10-19T11:13:41.216Z,99.90
2018-10-19T11:16:10.558Z,99.90
2018-10-19T11:18:39.507Z,99.90
2018-10-19T11:21:07.906Z,99.90
2018-10-19T11:23:36.234Z,99.90
2018-10-19T11:26:05.090Z,99.90
2018-10-19T11:28:33.461Z,99.90
2018-10-19T11:31:02.500Z,99.90
2018-10-19T11:33:30.964Z,99.90
2018-10-19T11:35:59.226Z,99.90
2018-10-19T11:38:27.493Z,99.90
2018-10-19T11:40:55.781Z,99.90
2018-10-19T11:43:24.097Z,99.90
2018-10-19T11:45:52.381Z,99.90
2018-10-19T11:48:20.765Z,99.90
2018-10-19T11:50:49.127Z,99.90
2018-10-19T11:53:17.473Z,99.90
2018-10-19T11:55:45.753Z,99.90
2018-10-19T11:58:14.217Z,99.90
2018-10-19T12:00:42.366Z,99.90
2018-10-19T12:03:10.718Z,99.90
2018-10-19T12:05:39.046Z,99.90
2018-10-19T12:08:08.369Z,99.90
2018-10-19T12:10:43.622Z,99.90
2018-10-19T12:13:11.922Z,99.70
2018-10-19T12:15:40.101Z,99.60
2018-10-19T12:18:08.389Z,99.00
2018-10-19T12:20:36.736Z,98.70
2018-10-19T12:23:05.384Z,98.60
2018-10-19T12:25:33.724Z,98.80
2018-10-19T12:28:03.278Z,98.60
2018-10-19T12:30:31.686Z,98.30
2018-10-19T12:33:00.344Z,98.00
2018-10-19T12:35:28.676Z,98.70
2018-10-19T12:37:57.006Z,98.60
2018-10-19T12:40:25.314Z,98.00
2018-10-19T12:42:53.718Z,98.00
2018-10-19T12:46:36.837Z,97.90
2018-10-19T12:49:06.586Z,98.30
2018-10-19T12:51:38.773Z,98.20
2018-10-19T12:54:08.335Z,98.10
2018-10-19T12:56:38.653Z,97.90
2018-10-19T12:59:09.085Z,97.90
2018-10-19T13:01:37.397Z,98.40
2018-10-19T13:04:05.913Z,98.40
2018-10-19T13:06:34.262Z,98.10
2018-10-19T13:09:03.010Z,97.60
2018-10-19T13:11:35.042Z,97.50
2018-10-19T13:14:03.305Z,97.50
2018-10-19T13:16:31.576Z,97.20
2018-10-19T13:18:59.901Z,97.40
2018-10-19T13:21:28.109Z,97.60
2018-10-19T13:23:56.475Z,97.20
2018-10-19T13:26:24.823Z,97.10
2018-10-19T13:28:53.268Z,97.00
2018-10-19T13:31:21.521Z,97.10
2018-10-19T13:33:49.857Z,97.00
2018-10-19T13:36:18.114Z,96.70
2018-10-19T13:38:46.945Z,97.00
2018-10-19T13:41:15.222Z,96.40
2018-10-19T13:43:44.114Z,95.70
2018-10-19T13:46:12.497Z,95.50
2018-10-19T13:48:40.781Z,95.00
2018-10-19T13:51:09.200Z,95.10
2018-10-19T13:53:38.361Z,94.30
2018-10-19T13:56:07.745Z,94.60
2018-10-19T13:58:36.067Z,94.60
2018-10-19T14:01:04.618Z,94.90
2018-10-19T14:03:32.886Z,94.50
2018-10-19T14:06:01.387Z,94.70
2018-10-19T14:08:29.650Z,94.10
2018-10-19T14:10:58.271Z,94.30
2018-10-19T14:13:26.486Z,94.30
2018-10-19T14:15:54.812Z,94.30
2018-10-19T14:18:23.155Z,94.80
2018-10-19T14:20:51.521Z,95.40
2018-10-19T14:23:19.830Z,95.10
2018-10-19T14:25:48.228Z,95.20
2018-10-19T14:28:16.568Z,95.00
2018-10-19T14:30:44.878Z,95.00
2018-10-19T14:33:13.493Z,95.20
2018-10-19T14:35:41.796Z,95.30
2018-10-19T14:38:10.083Z,95.10
2018-10-19T14:40:38.934Z,95.40
2018-10-19T14:43:07.257Z,94.90
2018-10-19T14:45:36.690Z,95.00
2018-10-19T14:48:08.778Z,95.60
2018-10-19T14:50:37.118Z,95.20
2018-10-19T14:53:05.682Z,96.00
2018-10-19T14:55:34.364Z,95.50
2018-10-19T14:58:02.752Z,95.50
2018-10-19T15:00:31.126Z,95.60
2018-10-19T15:03:02.738Z,95.70
2018-10-19T15:05:31.132Z,95.70
2018-10-19T15:08:01.711Z,95.60
2018-10-19T15:10:32.254Z,95.30
2018-10-19T15:13:00.274Z,95.40
2018-10-19T15:15:28.618Z,94.80
2018-10-19T15:17:57.260Z,95.30
2018-10-19T15:20:25.815Z,95.20
2018-10-19T15:22:54.263Z,94.90
2018-10-19T15:25:22.683Z,94.70
2018-10-19T15:27:51.026Z,94.20
2018-10-19T15:30:20.041Z,95.10
2018-10-19T15:32:49.296Z,94.40
2018-10-19T15:35:17.541Z,94.30
2018-10-19T15:37:45.886Z,94.50
2018-10-19T15:40:14.283Z,94.30
2018-10-19T15:42:42.569Z,94.30
2018-10-19T15:45:12.037Z,94.20
2018-10-19T15:47:40.402Z,94.20
2018-10-19T15:50:12.416Z,94.10
2018-10-19T15:52:40.697Z,94.80
2018-10-19T15:55:09.053Z,94.30
2018-10-19T15:57:37.318Z,94.50
2018-10-19T16:00:06.966Z,94.60
2018-10-19T16:02:35.263Z,94.80
2018-10-19T16:05:03.543Z,95.00
2018-10-19T16:07:31.884Z,94.70
2018-10-19T16:10:00.180Z,94.70
2018-10-19T16:12:28.465Z,94.90
2018-10-19T16:14:56.758Z,95.00
2018-10-19T16:17:25.030Z,95.30
2018-10-19T16:19:53.329Z,95.30
2018-10-19T16:22:21.610Z,95.30
2018-10-19T16:24:50.055Z,95.50
2018-10-19T16:27:18.358Z,95.70
2018-10-19T16:29:46.587Z,96.30
2018-10-19T16:32:14.869Z,96.80
2018-10-19T16:34:43.171Z,96.40
2018-10-19T16:37:11.475Z,96.30
2018-10-19T16:39:39.744Z,96.20
2018-10-19T16:42:08.099Z,96.00
2018-10-19T16:44:36.384Z,96.30
2018-10-19T16:47:04.875Z,97.00
2018-10-19T16:49:34.101Z,96.90
2018-10-19T16:52:02.450Z,97.70
2018-10-19T16:54:30.658Z,98.00
2018-10-19T16:56:58.973Z,97.40
2018-10-19T16:59:27.238Z,97.70
2018-10-19T17:01:55.500Z,97.30
2018-10-19T17:04:23.845Z,98.30
2018-10-19T17:06:52.130Z,98.00
2018-10-19T17:09:20.411Z,97.90
2018-10-19T17:11:48.913Z,98.30
2018-10-19T17:14:17.191Z,98.20
2018-10-19T17:16:45.559Z,98.80
2018-10-19T17:19:14.148Z,99.00
2018-10-19T17:21:42.405Z,98.70
2018-10-19T17:24:11.356Z,99.00
2018-10-19T17:26:39.599Z,99.30
2018-10-19T17:29:07.949Z,99.90
2018-10-19T17:31:36.379Z,99.90
2018-10-19T17:34:04.702Z,99.90
2018-10-19T17:36:33.074Z,99.90
2018-10-19T17:39:01.461Z,99.90
2018-10-19T17:41:29.690Z,99.70
2018-10-19T17:43:57.975Z,99.60
2018-10-19T17:46:26.255Z,99.70
2018-10-19T17:48:54.547Z,99.90
2018-10-19T17:51:22.793Z,99.90
2018-10-19T17:53:51.181Z,99.90
2018-10-19T17:56:19.429Z,99.90
2018-10-19T17:58:47.835Z,99.90
2018-10-19T18:01:16.108Z,99.90
2018-10-19T18:03:44.412Z,99.90
2018-10-19T18:06:12.859Z,99.90
2018-10-19T18:08:41.223Z,99.90
2018-10-19T18:11:09.738Z,99.90
2018-10-19T18:13:38.139Z,99.90
2018-10-19T18:16:06.557Z,99.90
2018-10-19T18:18:34.816Z,99.90
2018-10-19T18:21:03.804Z,99.90
2018-10-19T18:23:32.109Z,99.90
2018-10-19T18:26:00.458Z,99.90
2018-10-19T18:28:28.701Z,99.90
2018-10-19T18:30:58.185Z,99.90
2018-10-19T18:33:26.510Z,99.90
2018-10-19T18:35:54.801Z,99.90
2018-10-19T18:38:23.088Z,99.90
2018-10-19T18:40:51.389Z,99.90
2018-10-19T18:43:20.158Z,99.90
2018-10-19T18:45:48.457Z,99.90
2018-10-19T18:48:16.798Z,99.90
2018-10-19T18:50:45.196Z,99.90
2018-10-19T18:53:13.534Z,99.90
2018-10-19T18:55:41.762Z,99.90
2018-10-19T18:58:10.090Z,99.90
2018-10-19T19:00:38.454Z,99.90
2018-10-19T19:03:06.746Z,99.90
2018-10-19T19:05:35.017Z,99.90
2018-10-19T19:08:03.331Z,99.90
2018-10-19T19:10:31.516Z,99.90
2018-10-19T19:13:05.435Z,99.90
2018-10-19T19:15:34.537Z,99.90
2018-10-19T19:18:02.917Z,99.90
2018-10-19T19:20:31.350Z,99.90
2018-10-19T19:22:59.673Z,99.90
2018-10-19T19:25:33.391Z,99.90
2018-10-19T19:28:01.694Z,99.90
2018-10-19T19:30:29.981Z,99.90
2018-10-19T19:33:03.491Z,99.90
2018-10-19T19:35:31.801Z,99.90
2018-10-19T19:38:00.155Z,99.90
2018-10-19T19:40:28.449Z,99.90
2018-10-19T19:42:58.141Z,99.90
2018-10-19T19:45:26.423Z,99.90
2018-10-19T19:47:59.989Z,99.90
2018-10-19T19:50:29.265Z,99.90
2018-10-19T19:52:57.603Z,99.90
2018-10-19T19:55:25.888Z,99.90
2018-10-19T19:57:54.307Z,99.90
2018-10-19T20:00:22.569Z,99.90
2018-10-19T20:02:51.411Z,99.90
2018-10-19T20:05:19.773Z,99.90
2018-10-19T20:07:48.018Z,99.90
2018-10-19T20:10:16.411Z,99.90
2018-10-19T20:12:44.675Z,99.90
2018-10-19T20:15:12.966Z,99.90
2018-10-19T20:17:41.245Z,99.90
2018-10-19T20:20:10.963Z,99.90
2018-10-19T20:22:40.134Z,99.90
2018-10-19T20:25:09.546Z,99.90
2018-10-19T20:27:38.461Z,99.90
2018-10-19T20:30:09.054Z,99.90
2018-10-19T20:32:37.851Z,99.90
2018-10-19T20:35:06.065Z,99.90
2018-10-19T20:37:34.446Z,99.90
2018-10-19T20:40:02.926Z,99.90
2018-10-19T20:42:31.182Z,99.90
2018-10-19T20:44:59.457Z,99.90
2018-10-19T20:47:27.732Z,99.90
2018-10-19T20:49:58.356Z,99.90
2018-10-19T20:52:26.663Z,99.90
2018-10-19T20:54:54.919Z,99.90
2018-10-19T20:57:23.273Z,99.90
2018-10-19T20:59:51.540Z,99.90
2018-10-19T21:02:19.941Z,99.90
2018-10-19T21:04:48.249Z,99.90
2018-10-19T21:07:16.576Z,99.90
2018-10-19T21:09:44.783Z,99.90
2018-10-19T21:12:13.049Z,99.90
2018-10-19T21:14:41.438Z,99.90
2018-10-19T21:17:09.772Z,99.90
2018-10-19T21:19:38.049Z,99.90
2018-10-19T21:22:07.015Z,99.90
2018-10-19T21:24:35.297Z,99.90
2018-10-19T21:27:03.638Z,99.90
2018-10-19T21:29:33.053Z,99.90
2018-10-19T21:32:01.337Z,99.90
2018-10-19T21:34:29.585Z,99.90
2018-10-19T21:36:57.868Z,99.90
2018-10-19T21:39:26.230Z,99.90
2018-10-19T21:41:54.474Z,99.90
2018-10-19T21:44:22.932Z,99.90
2018-10-19T21:46:51.520Z,99.90
2018-10-19T21:49:19.843Z,99.90
2018-10-19T21:51:48.397Z,99.90
2018-10-19T21:54:16.613Z,99.90
2018-10-19T21:56:44.939Z,99.90
2018-10-19T21:59:13.448Z,99.90
2018-10-19T22:01:41.833Z,99.90
2018-10-19T22:04:10.161Z,99.90
2018-10-19T22:06:39.066Z,99.90
2018-10-19T22:09:09.784Z,99.90
2018-10-19T22:11:38.679Z,99.90
2018-10-19T22:14:07.329Z,99.90
2018-10-19T22:16:36.816Z,99.90
2018-10-19T22:19:05.614Z,99.90
2018-10-19T22:21:33.838Z,99.90
2018-10-19T22:24:02.187Z,99.90
2018-10-19T22:26:30.644Z,99.90
2018-10-19T22:28:58.964Z,99.90
2018-10-19T22:31:27.239Z,99.90
2018-10-19T22:33:56.611Z,99.90
2018-10-19T22:36:24.940Z,99.90
2018-10-19T22:38:53.302Z,99.90
2018-10-19T22:41:21.720Z,99.90
2018-10-19T22:43:50.493Z,99.90
2018-10-19T22:46:18.846Z,99.90
2018-10-19T22:48:47.190Z,99.90
2018-10-19T22:51:15.477Z,99.90
2018-10-19T22:53:43.745Z,99.90
2018-10-19T22:56:12.569Z,99.90
2018-10-19T22:58:41.009Z,99.90
2018-10-19T23:01:09.376Z,99.90
2018-10-19T23:03:37.587Z,99.90
2018-10-19T23:06:05.835Z,99.90
2018-10-19T23:08:34.079Z,99.90
2018-10-19T23:11:02.560Z,99.90
2018-10-19T23:13:30.765Z,99.90
2018-10-19T23:15:59.036Z,99.90
2018-10-19T23:18:27.321Z,99.90
2018-10-19T23:20:55.590Z,99.90
2018-10-19T23:23:23.868Z,99.90
2018-10-19T23:25:52.119Z,99.90
2018-10-19T23:28:20.385Z,99.90
2018-10-19T23:30:48.662Z,99.90
2018-10-19T23:33:16.961Z,99.90
2018-10-19T23:35:45.190Z,99.90
2018-10-19T23:38:13.498Z,99.90
2018-10-19T23:40:41.903Z,99.90
2018-10-19T23:43:10.244Z,99.90
2018-10-19T23:45:38.598Z,99.90
2018-10-19T23:48:06.869Z,99.90
2018-10-19T23:50:35.158Z,99.90
2018-10-19T23:53:03.425Z,99.90
2018-10-19T23:55:31.744Z,99.90
2018-10-19T23:58:00.009Z,99.90
